sensor_id;sensor_type;location;lat;lon;timestamp;P1;durP1;ratioP1;P2;durP2;ratioP2
77544;SDS011;66672;50.328;7.610;2023-03-05T00:01:06;15.83;;;6.80;;
77544;SDS011;66672;50.328;7.610;2023-03-05T00:03:33;16.67;;;6.07;;
77544;SDS011;66672;50.328;7.610;2023-03-05T00:05:58;15.23;;;6.67;;
77544;SDS011;66672;50.328;7.610;2023-03-05T00:08:24;15.33;;;7.43;;
77544;SDS011;66672;50.328;7.610;2023-03-05T00:10:59;18.47;;;6.40;;
77544;SDS011;66672;50.328;7.610;2023-03-05T00:13:27;19.00;;;6.70;;
77544;SDS011;66672;50.328;7.610;2023-03-05T00:15:52;16.33;;;7.00;;
77544;SDS011;66672;50.328;7.610;2023-03-05T00:18:18;17.13;;;6.73;;
77544;SDS011;66672;50.328;7.610;2023-03-05T00:20:43;17.70;;;7.20;;
77544;SDS011;66672;50.328;7.610;2023-03-05T00:23:09;15.43;;;6.87;;
77544;SDS011;66672;50.328;7.610;2023-03-05T00:25:35;13.27;;;6.50;;
77544;SDS011;66672;50.328;7.610;2023-03-05T00:28:00;15.97;;;7.17;;
77544;SDS011;66672;50.328;7.610;2023-03-05T00:30:26;18.77;;;6.53;;
77544;SDS011;66672;50.328;7.610;2023-03-05T00:32:51;18.97;;;7.23;;
77544;SDS011;66672;50.328;7.610;2023-03-05T00:35:17;14.07;;;6.90;;
77544;SDS011;66672;50.328;7.610;2023-03-05T00:37:42;12.10;;;6.37;;
77544;SDS011;66672;50.328;7.610;2023-03-05T00:40:08;16.90;;;7.10;;
77544;SDS011;66672;50.328;7.610;2023-03-05T00:42:34;17.20;;;6.97;;
77544;SDS011;66672;50.328;7.610;2023-03-05T00:45:03;20.63;;;7.90;;
77544;SDS011;66672;50.328;7.610;2023-03-05T00:47:30;18.50;;;7.30;;
77544;SDS011;66672;50.328;7.610;2023-03-05T00:49:56;13.87;;;5.90;;
77544;SDS011;66672;50.328;7.610;2023-03-05T00:52:21;12.37;;;5.40;;
77544;SDS011;66672;50.328;7.610;2023-03-05T00:54:46;9.73;;;3.80;;
77544;SDS011;66672;50.328;7.610;2023-03-05T00:57:12;19.40;;;5.77;;
77544;SDS011;66672;50.328;7.610;2023-03-05T00:59:37;11.80;;;4.57;;
77544;SDS011;66672;50.328;7.610;2023-03-05T01:02:02;9.97;;;4.33;;
77544;SDS011;66672;50.328;7.610;2023-03-05T01:04:27;11.90;;;5.33;;
77544;SDS011;66672;50.328;7.610;2023-03-05T01:06:53;10.80;;;4.63;;
77544;SDS011;66672;50.328;7.610;2023-03-05T01:09:18;16.17;;;4.80;;
77544;SDS011;66672;50.328;7.610;2023-03-05T01:11:45;9.40;;;4.47;;
77544;SDS011;66672;50.328;7.610;2023-03-05T01:14:10;11.20;;;5.33;;
77544;SDS011;66672;50.328;7.610;2023-03-05T01:16:36;12.60;;;5.07;;
77544;SDS011;66672;50.328;7.610;2023-03-05T01:19:01;18.17;;;4.80;;
77544;SDS011;66672;50.328;7.610;2023-03-05T01:21:27;10.80;;;4.20;;
77544;SDS011;66672;50.328;7.610;2023-03-05T01:23:52;11.30;;;4.77;;
77544;SDS011;66672;50.328;7.610;2023-03-05T01:26:17;8.13;;;3.43;;
77544;SDS011;66672;50.328;7.610;2023-03-05T01:28:43;14.67;;;4.23;;
77544;SDS011;66672;50.328;7.610;2023-03-05T01:31:08;9.83;;;3.83;;
77544;SDS011;66672;50.328;7.610;2023-03-05T01:33:34;10.30;;;4.10;;
77544;SDS011;66672;50.328;7.610;2023-03-05T01:36:00;10.10;;;3.70;;
77544;SDS011;66672;50.328;7.610;2023-03-05T01:38:25;14.63;;;4.73;;
77544;SDS011;66672;50.328;7.610;2023-03-05T01:40:50;8.27;;;3.90;;
77544;SDS011;66672;50.328;7.610;2023-03-05T01:43:22;11.23;;;4.40;;
77544;SDS011;66672;50.328;7.610;2023-03-05T01:49:03;11.03;;;3.73;;
77544;SDS011;66672;50.328;7.610;2023-03-05T01:51:34;13.23;;;4.37;;
77544;SDS011;66672;50.328;7.610;2023-03-05T01:54:04;12.27;;;3.90;;
77544;SDS011;66672;50.328;7.610;2023-03-05T01:56:31;11.70;;;3.83;;
77544;SDS011;66672;50.328;7.610;2023-03-05T01:58:57;11.10;;;3.77;;
77544;SDS011;66672;50.328;7.610;2023-03-05T02:01:28;11.27;;;4.30;;
77544;SDS011;66672;50.328;7.610;2023-03-05T02:03:56;9.77;;;3.27;;
77544;SDS011;66672;50.328;7.610;2023-03-05T02:06:22;9.53;;;3.10;;
77544;SDS011;66672;50.328;7.610;2023-03-05T02:08:47;9.20;;;3.10;;
77544;SDS011;66672;50.328;7.610;2023-03-05T02:11:12;7.50;;;2.90;;
77544;SDS011;66672;50.328;7.610;2023-03-05T02:13:38;8.63;;;3.10;;
77544;SDS011;66672;50.328;7.610;2023-03-05T02:16:04;10.40;;;2.93;;
77544;SDS011;66672;50.328;7.610;2023-03-05T02:18:31;10.27;;;2.47;;
77544;SDS011;66672;50.328;7.610;2023-03-05T02:23:26;7.13;;;2.73;;
77544;SDS011;66672;50.328;7.610;2023-03-05T02:25:53;10.80;;;3.07;;
77544;SDS011;66672;50.328;7.610;2023-03-05T02:31:14;11.20;;;3.33;;
77544;SDS011;66672;50.328;7.610;2023-03-05T02:33:42;7.73;;;2.87;;
77544;SDS011;66672;50.328;7.610;2023-03-05T02:36:07;11.00;;;3.27;;
77544;SDS011;66672;50.328;7.610;2023-03-05T02:38:33;14.07;;;3.83;;
77544;SDS011;66672;50.328;7.610;2023-03-05T02:40:58;8.60;;;3.20;;
77544;SDS011;66672;50.328;7.610;2023-03-05T02:43:24;8.47;;;3.10;;
77544;SDS011;66672;50.328;7.610;2023-03-05T02:45:49;17.03;;;3.73;;
77544;SDS011;66672;50.328;7.610;2023-03-05T02:48:15;9.80;;;3.63;;
77544;SDS011;66672;50.328;7.610;2023-03-05T02:50:40;14.00;;;4.07;;
77544;SDS011;66672;50.328;7.610;2023-03-05T02:53:06;11.43;;;3.87;;
77544;SDS011;66672;50.328;7.610;2023-03-05T02:55:31;10.13;;;4.07;;
77544;SDS011;66672;50.328;7.610;2023-03-05T02:57:57;9.73;;;3.50;;
77544;SDS011;66672;50.328;7.610;2023-03-05T03:00:22;15.33;;;4.77;;
77544;SDS011;66672;50.328;7.610;2023-03-05T03:02:47;10.80;;;4.03;;
77544;SDS011;66672;50.328;7.610;2023-03-05T03:05:13;11.93;;;3.43;;
77544;SDS011;66672;50.328;7.610;2023-03-05T03:07:38;12.40;;;4.80;;
77544;SDS011;66672;50.328;7.610;2023-03-05T03:10:04;13.77;;;4.50;;
77544;SDS011;66672;50.328;7.610;2023-03-05T03:12:30;15.53;;;4.10;;
77544;SDS011;66672;50.328;7.610;2023-03-05T03:14:55;11.13;;;4.37;;
77544;SDS011;66672;50.328;7.610;2023-03-05T03:17:20;10.90;;;4.67;;
77544;SDS011;66672;50.328;7.610;2023-03-05T03:19:46;11.00;;;4.13;;
77544;SDS011;66672;50.328;7.610;2023-03-05T03:22:13;12.57;;;4.27;;
77544;SDS011;66672;50.328;7.610;2023-03-05T03:24:40;11.07;;;4.33;;
77544;SDS011;66672;50.328;7.610;2023-03-05T03:27:06;13.57;;;4.53;;
77544;SDS011;66672;50.328;7.610;2023-03-05T03:29:32;10.40;;;4.37;;
77544;SDS011;66672;50.328;7.610;2023-03-05T03:31:57;11.27;;;3.80;;
77544;SDS011;66672;50.328;7.610;2023-03-05T03:34:22;10.50;;;3.70;;
77544;SDS011;66672;50.328;7.610;2023-03-05T03:36:49;12.67;;;4.17;;
77544;SDS011;66672;50.328;7.610;2023-03-05T03:39:15;11.97;;;3.77;;
77544;SDS011;66672;50.328;7.610;2023-03-05T03:41:42;12.83;;;4.37;;
77544;SDS011;66672;50.328;7.610;2023-03-05T03:44:08;10.73;;;3.83;;
77544;SDS011;66672;50.328;7.610;2023-03-05T03:46:34;11.13;;;4.33;;
77544;SDS011;66672;50.328;7.610;2023-03-05T03:49:00;10.77;;;3.10;;
77544;SDS011;66672;50.328;7.610;2023-03-05T03:51:26;13.70;;;3.60;;
77544;SDS011;66672;50.328;7.610;2023-03-05T03:53:51;11.27;;;3.53;;
77544;SDS011;66672;50.328;7.610;2023-03-05T03:56:16;12.13;;;3.23;;
77544;SDS011;66672;50.328;7.610;2023-03-05T03:58:42;11.80;;;3.10;;
77544;SDS011;66672;50.328;7.610;2023-03-05T04:01:08;11.03;;;3.00;;
77544;SDS011;66672;50.328;7.610;2023-03-05T04:03:33;7.13;;;3.33;;
77544;SDS011;66672;50.328;7.610;2023-03-05T04:05:58;9.73;;;2.93;;
77544;SDS011;66672;50.328;7.610;2023-03-05T04:08:24;11.47;;;3.27;;
77544;SDS011;66672;50.328;7.610;2023-03-05T04:10:50;11.73;;;2.87;;
77544;SDS011;66672;50.328;7.610;2023-03-05T04:13:15;14.57;;;3.27;;
77544;SDS011;66672;50.328;7.610;2023-03-05T04:15:41;9.07;;;3.07;;
77544;SDS011;66672;50.328;7.610;2023-03-05T04:18:06;6.20;;;2.53;;
77544;SDS011;66672;50.328;7.610;2023-03-05T04:20:31;7.33;;;2.80;;
77544;SDS011;66672;50.328;7.610;2023-03-05T04:22:57;15.17;;;3.40;;
77544;SDS011;66672;50.328;7.610;2023-03-05T04:25:22;13.87;;;3.17;;
77544;SDS011;66672;50.328;7.610;2023-03-05T04:27:47;10.87;;;3.37;;
77544;SDS011;66672;50.328;7.610;2023-03-05T04:30:13;9.50;;;3.50;;
77544;SDS011;66672;50.328;7.610;2023-03-05T04:32:38;11.43;;;2.90;;
77544;SDS011;66672;50.328;7.610;2023-03-05T04:35:04;9.93;;;2.67;;
77544;SDS011;66672;50.328;7.610;2023-03-05T04:37:29;6.67;;;2.43;;
77544;SDS011;66672;50.328;7.610;2023-03-05T04:39:54;8.20;;;2.60;;
77544;SDS011;66672;50.328;7.610;2023-03-05T04:42:20;7.63;;;2.20;;
77544;SDS011;66672;50.328;7.610;2023-03-05T04:44:47;7.83;;;2.80;;
77544;SDS011;66672;50.328;7.610;2023-03-05T04:47:13;7.00;;;2.27;;
77544;SDS011;66672;50.328;7.610;2023-03-05T04:49:38;7.40;;;2.17;;
77544;SDS011;66672;50.328;7.610;2023-03-05T04:52:04;8.33;;;2.20;;
77544;SDS011;66672;50.328;7.610;2023-03-05T04:54:29;8.27;;;1.93;;
77544;SDS011;66672;50.328;7.610;2023-03-05T04:56:54;5.43;;;1.97;;
77544;SDS011;66672;50.328;7.610;2023-03-05T04:59:19;8.33;;;2.00;;
77544;SDS011;66672;50.328;7.610;2023-03-05T05:01:45;7.63;;;1.87;;
77544;SDS011;66672;50.328;7.610;2023-03-05T05:04:10;7.87;;;1.80;;
77544;SDS011;66672;50.328;7.610;2023-03-05T05:06:35;7.87;;;1.90;;
77544;SDS011;66672;50.328;7.610;2023-03-05T05:09:01;6.57;;;1.50;;
77544;SDS011;66672;50.328;7.610;2023-03-05T05:11:26;4.50;;;1.60;;
77544;SDS011;66672;50.328;7.610;2023-03-05T05:13:51;11.80;;;1.87;;
77544;SDS011;66672;50.328;7.610;2023-03-05T05:16:17;5.40;;;1.70;;
77544;SDS011;66672;50.328;7.610;2023-03-05T05:18:42;4.13;;;1.30;;
77544;SDS011;66672;50.328;7.610;2023-03-05T05:21:08;7.80;;;1.60;;
77544;SDS011;66672;50.328;7.610;2023-03-05T05:23:35;7.23;;;1.37;;
77544;SDS011;66672;50.328;7.610;2023-03-05T05:26:02;4.27;;;1.20;;
77544;SDS011;66672;50.328;7.610;2023-03-05T05:28:29;6.03;;;1.33;;
77544;SDS011;66672;50.328;7.610;2023-03-05T05:30:55;2.77;;;1.00;;
77544;SDS011;66672;50.328;7.610;2023-03-05T05:33:21;4.67;;;1.20;;
77544;SDS011;66672;50.328;7.610;2023-03-05T05:35:47;4.90;;;1.10;;
77544;SDS011;66672;50.328;7.610;2023-03-05T05:38:13;5.00;;;0.83;;
77544;SDS011;66672;50.328;7.610;2023-03-05T05:40:38;6.67;;;1.13;;
77544;SDS011;66672;50.328;7.610;2023-03-05T05:43:04;4.80;;;1.47;;
77544;SDS011;66672;50.328;7.610;2023-03-05T05:45:29;3.80;;;0.77;;
77544;SDS011;66672;50.328;7.610;2023-03-05T05:47:55;3.57;;;1.00;;
77544;SDS011;66672;50.328;7.610;2023-03-05T05:50:20;4.43;;;1.03;;
77544;SDS011;66672;50.328;7.610;2023-03-05T05:52:45;3.47;;;1.13;;
77544;SDS011;66672;50.328;7.610;2023-03-05T05:55:11;6.17;;;1.30;;
77544;SDS011;66672;50.328;7.610;2023-03-05T05:57:37;4.33;;;1.13;;
77544;SDS011;66672;50.328;7.610;2023-03-05T06:00:05;6.23;;;1.30;;
77544;SDS011;66672;50.328;7.610;2023-03-05T06:02:36;5.27;;;1.53;;
77544;SDS011;66672;50.328;7.610;2023-03-05T06:05:02;5.07;;;1.50;;
77544;SDS011;66672;50.328;7.610;2023-03-05T06:07:27;4.37;;;1.13;;
77544;SDS011;66672;50.328;7.610;2023-03-05T06:09:53;3.00;;;1.30;;
77544;SDS011;66672;50.328;7.610;2023-03-05T06:12:18;3.10;;;1.23;;
77544;SDS011;66672;50.328;7.610;2023-03-05T06:14:43;6.90;;;1.40;;
77544;SDS011;66672;50.328;7.610;2023-03-05T06:17:09;5.97;;;1.50;;
77544;SDS011;66672;50.328;7.610;2023-03-05T06:19:34;5.43;;;1.30;;
77544;SDS011;66672;50.328;7.610;2023-03-05T06:21:59;5.20;;;1.40;;
77544;SDS011;66672;50.328;7.610;2023-03-05T06:24:25;6.57;;;2.53;;
77544;SDS011;66672;50.328;7.610;2023-03-05T06:26:50;7.27;;;2.40;;
77544;SDS011;66672;50.328;7.610;2023-03-05T06:29:15;7.03;;;2.13;;
77544;SDS011;66672;50.328;7.610;2023-03-05T06:31:42;5.27;;;2.07;;
77544;SDS011;66672;50.328;7.610;2023-03-05T06:34:07;7.30;;;2.20;;
77544;SDS011;66672;50.328;7.610;2023-03-05T06:36:33;5.83;;;2.43;;
77544;SDS011;66672;50.328;7.610;2023-03-05T06:38:59;9.00;;;2.13;;
77544;SDS011;66672;50.328;7.610;2023-03-05T06:41:26;6.33;;;2.30;;
77544;SDS011;66672;50.328;7.610;2023-03-05T06:43:53;7.67;;;2.53;;
77544;SDS011;66672;50.328;7.610;2023-03-05T06:46:21;9.17;;;2.60;;
77544;SDS011;66672;50.328;7.610;2023-03-05T06:48:49;8.27;;;2.97;;
77544;SDS011;66672;50.328;7.610;2023-03-05T06:51:18;6.40;;;2.57;;
77544;SDS011;66672;50.328;7.610;2023-03-05T06:53:46;11.07;;;3.27;;
77544;SDS011;66672;50.328;7.610;2023-03-05T06:56:12;6.83;;;2.77;;
77544;SDS011;66672;50.328;7.610;2023-03-05T06:58:40;11.13;;;3.00;;
77544;SDS011;66672;50.328;7.610;2023-03-05T07:01:06;7.93;;;2.83;;
77544;SDS011;66672;50.328;7.610;2023-03-05T07:03:31;11.30;;;2.57;;
77544;SDS011;66672;50.328;7.610;2023-03-05T07:05:57;7.80;;;2.70;;
77544;SDS011;66672;50.328;7.610;2023-03-05T07:08:23;10.17;;;2.17;;
77544;SDS011;66672;50.328;7.610;2023-03-05T07:10:48;7.40;;;2.37;;
77544;SDS011;66672;50.328;7.610;2023-03-05T07:13:13;7.33;;;2.60;;
77544;SDS011;66672;50.328;7.610;2023-03-05T07:15:39;6.33;;;1.90;;
77544;SDS011;66672;50.328;7.610;2023-03-05T07:18:05;11.63;;;2.80;;
77544;SDS011;66672;50.328;7.610;2023-03-05T07:20:32;7.17;;;2.40;;
77544;SDS011;66672;50.328;7.610;2023-03-05T07:22:59;7.60;;;2.50;;
77544;SDS011;66672;50.328;7.610;2023-03-05T07:25:24;9.00;;;2.40;;
77544;SDS011;66672;50.328;7.610;2023-03-05T07:27:50;7.93;;;2.60;;
77544;SDS011;66672;50.328;7.610;2023-03-05T07:30:15;8.43;;;2.07;;
77544;SDS011;66672;50.328;7.610;2023-03-05T07:32:41;8.80;;;2.60;;
77544;SDS011;66672;50.328;7.610;2023-03-05T07:35:06;7.50;;;2.17;;
77544;SDS011;66672;50.328;7.610;2023-03-05T07:37:32;8.40;;;2.90;;
77544;SDS011;66672;50.328;7.610;2023-03-05T07:39:57;11.20;;;3.57;;
77544;SDS011;66672;50.328;7.610;2023-03-05T07:42:23;8.93;;;2.63;;
77544;SDS011;66672;50.328;7.610;2023-03-05T07:44:48;8.60;;;2.63;;
77544;SDS011;66672;50.328;7.610;2023-03-05T07:47:14;9.30;;;3.00;;
77544;SDS011;66672;50.328;7.610;2023-03-05T07:49:39;8.60;;;2.93;;
77544;SDS011;66672;50.328;7.610;2023-03-05T07:52:06;10.17;;;2.90;;
77544;SDS011;66672;50.328;7.610;2023-03-05T07:54:32;8.50;;;2.80;;
77544;SDS011;66672;50.328;7.610;2023-03-05T07:57:02;9.50;;;2.43;;
77544;SDS011;66672;50.328;7.610;2023-03-05T07:59:28;8.73;;;3.13;;
77544;SDS011;66672;50.328;7.610;2023-03-05T08:01:54;7.43;;;2.50;;
77544;SDS011;66672;50.328;7.610;2023-03-05T08:04:19;9.93;;;2.83;;
77544;SDS011;66672;50.328;7.610;2023-03-05T08:06:44;9.40;;;2.30;;
77544;SDS011;66672;50.328;7.610;2023-03-05T08:09:10;7.77;;;3.60;;
77544;SDS011;66672;50.328;7.610;2023-03-05T08:11:37;11.60;;;2.63;;
77544;SDS011;66672;50.328;7.610;2023-03-05T08:14:03;6.40;;;2.93;;
77544;SDS011;66672;50.328;7.610;2023-03-05T08:16:28;9.23;;;3.00;;
77544;SDS011;66672;50.328;7.610;2023-03-05T08:18:54;7.23;;;1.87;;
77544;SDS011;66672;50.328;7.610;2023-03-05T08:21:25;5.80;;;2.13;;
77544;SDS011;66672;50.328;7.610;2023-03-05T08:23:53;7.23;;;3.57;;
77544;SDS011;66672;50.328;7.610;2023-03-05T08:26:22;6.67;;;2.43;;
77544;SDS011;66672;50.328;7.610;2023-03-05T08:28:49;7.10;;;2.33;;
77544;SDS011;66672;50.328;7.610;2023-03-05T08:31:15;10.57;;;2.53;;
77544;SDS011;66672;50.328;7.610;2023-03-05T08:33:41;8.90;;;3.63;;
77544;SDS011;66672;50.328;7.610;2023-03-05T08:36:07;6.80;;;2.37;;
77544;SDS011;66672;50.328;7.610;2023-03-05T08:38:33;8.10;;;2.10;;
77544;SDS011;66672;50.328;7.610;2023-03-05T08:40:59;7.33;;;2.27;;
77544;SDS011;66672;50.328;7.610;2023-03-05T08:43:24;5.07;;;2.27;;
77544;SDS011;66672;50.328;7.610;2023-03-05T08:45:50;15.17;;;2.80;;
77544;SDS011;66672;50.328;7.610;2023-03-05T08:48:17;6.07;;;1.90;;
77544;SDS011;66672;50.328;7.610;2023-03-05T08:50:43;6.00;;;2.03;;
77544;SDS011;66672;50.328;7.610;2023-03-05T08:53:08;7.77;;;2.33;;
77544;SDS011;66672;50.328;7.610;2023-03-05T08:55:33;6.77;;;2.57;;
77544;SDS011;66672;50.328;7.610;2023-03-05T08:57:59;5.37;;;1.90;;
77544;SDS011;66672;50.328;7.610;2023-03-05T09:00:24;7.87;;;2.13;;
77544;SDS011;66672;50.328;7.610;2023-03-05T09:02:49;6.97;;;2.00;;
77544;SDS011;66672;50.328;7.610;2023-03-05T09:05:15;6.80;;;1.90;;
77544;SDS011;66672;50.328;7.610;2023-03-05T09:07:41;6.23;;;2.20;;
77544;SDS011;66672;50.328;7.610;2023-03-05T09:10:07;5.23;;;1.93;;
77544;SDS011;66672;50.328;7.610;2023-03-05T09:12:35;7.57;;;2.30;;
77544;SDS011;66672;50.328;7.610;2023-03-05T09:15:01;6.50;;;1.97;;
77544;SDS011;66672;50.328;7.610;2023-03-05T09:17:28;8.50;;;2.13;;
77544;SDS011;66672;50.328;7.610;2023-03-05T09:19:53;6.10;;;1.87;;
77544;SDS011;66672;50.328;7.610;2023-03-05T09:22:18;5.27;;;1.87;;
77544;SDS011;66672;50.328;7.610;2023-03-05T09:24:44;8.13;;;2.37;;
77544;SDS011;66672;50.328;7.610;2023-03-05T09:27:09;6.93;;;2.10;;
77544;SDS011;66672;50.328;7.610;2023-03-05T09:29:34;7.40;;;1.80;;
77544;SDS011;66672;50.328;7.610;2023-03-05T09:32:00;8.50;;;2.77;;
77544;SDS011;66672;50.328;7.610;2023-03-05T09:34:25;11.23;;;2.60;;
77544;SDS011;66672;50.328;7.610;2023-03-05T09:36:51;6.70;;;2.17;;
77544;SDS011;66672;50.328;7.610;2023-03-05T09:39:16;9.03;;;2.30;;
77544;SDS011;66672;50.328;7.610;2023-03-05T09:46:53;5.70;;;1.73;;
77544;SDS011;66672;50.328;7.610;2023-03-05T09:49:52;6.43;;;2.30;;
77544;SDS011;66672;50.328;7.610;2023-03-05T09:52:32;6.53;;;3.13;;
77544;SDS011;66672;50.328;7.610;2023-03-05T09:55:03;5.90;;;1.90;;
77544;SDS011;66672;50.328;7.610;2023-03-05T09:57:44;9.60;;;3.03;;
77544;SDS011;66672;50.328;7.610;2023-03-05T10:04:20;7.85;;;2.75;;
77544;SDS011;66672;50.328;7.610;2023-03-05T10:08:52;7.63;;;2.20;;
77544;SDS011;66672;50.328;7.610;2023-03-05T10:14:00;6.70;;;2.40;;
77544;SDS011;66672;50.328;7.610;2023-03-05T10:16:35;6.27;;;2.13;;
77544;SDS011;66672;50.328;7.610;2023-03-05T10:22:25;8.53;;;2.90;;
77544;SDS011;66672;50.328;7.610;2023-03-05T10:25:12;15.47;;;3.33;;
77544;SDS011;66672;50.328;7.610;2023-03-05T10:27:57;5.70;;;2.27;;
77544;SDS011;66672;50.328;7.610;2023-03-05T10:41:22;8.00;;;2.60;;
77544;SDS011;66672;50.328;7.610;2023-03-05T10:46:34;7.60;;;3.07;;
77544;SDS011;66672;50.328;7.610;2023-03-05T10:49:06;6.93;;;2.37;;
77544;SDS011;66672;50.328;7.610;2023-03-05T10:54:28;6.27;;;2.53;;
77544;SDS011;66672;50.328;7.610;2023-03-05T10:57:09;6.10;;;2.50;;
77544;SDS011;66672;50.328;7.610;2023-03-05T10:59:40;6.00;;;2.30;;
77544;SDS011;66672;50.328;7.610;2023-03-05T11:02:18;8.87;;;2.70;;
77544;SDS011;66672;50.328;7.610;2023-03-05T11:04:44;6.27;;;2.40;;
77544;SDS011;66672;50.328;7.610;2023-03-05T11:09:38;5.30;;;2.30;;
77544;SDS011;66672;50.328;7.610;2023-03-05T11:14:38;8.30;;;2.53;;
77544;SDS011;66672;50.328;7.610;2023-03-05T11:17:30;8.53;;;2.73;;
77544;SDS011;66672;50.328;7.610;2023-03-05T11:20:19;5.43;;;2.20;;
77544;SDS011;66672;50.328;7.610;2023-03-05T11:28:35;8.10;;;3.70;;
77544;SDS011;66672;50.328;7.610;2023-03-05T11:33:31;6.13;;;2.00;;
77544;SDS011;66672;50.328;7.610;2023-03-05T11:38:58;6.77;;;2.47;;
77544;SDS011;66672;50.328;7.610;2023-03-05T11:41:38;5.63;;;2.40;;
77544;SDS011;66672;50.328;7.610;2023-03-05T11:44:17;4.40;;;1.80;;
77544;SDS011;66672;50.328;7.610;2023-03-05T11:46:47;5.67;;;1.73;;
77544;SDS011;66672;50.328;7.610;2023-03-05T11:49:23;5.57;;;2.27;;
77544;SDS011;66672;50.328;7.610;2023-03-05T11:54:25;6.00;;;2.30;;
77544;SDS011;66672;50.328;7.610;2023-03-05T11:56:57;6.23;;;2.47;;
77544;SDS011;66672;50.328;7.610;2023-03-05T11:59:31;5.13;;;2.20;;
77544;SDS011;66672;50.328;7.610;2023-03-05T12:02:01;8.07;;;2.60;;
77544;SDS011;66672;50.328;7.610;2023-03-05T12:04:28;6.37;;;2.20;;
77544;SDS011;66672;50.328;7.610;2023-03-05T12:06:59;6.63;;;2.90;;
77544;SDS011;66672;50.328;7.610;2023-03-05T12:15:05;7.77;;;2.73;;
77544;SDS011;66672;50.328;7.610;2023-03-05T12:17:43;7.77;;;2.47;;
77544;SDS011;66672;50.328;7.610;2023-03-05T12:20:15;6.33;;;2.53;;
77544;SDS011;66672;50.328;7.610;2023-03-05T12:22:47;6.70;;;2.30;;
77544;SDS011;66672;50.328;7.610;2023-03-05T12:28:16;5.30;;;2.60;;
77544;SDS011;66672;50.328;7.610;2023-03-05T12:31:01;6.93;;;2.53;;
77544;SDS011;66672;50.328;7.610;2023-03-05T12:36:31;5.93;;;2.53;;
77544;SDS011;66672;50.328;7.610;2023-03-05T12:38:57;6.03;;;1.63;;
77544;SDS011;66672;50.328;7.610;2023-03-05T12:51:44;5.93;;;2.85;;
77544;SDS011;66672;50.328;7.610;2023-03-05T12:56:54;5.73;;;2.07;;
77544;SDS011;66672;50.328;7.610;2023-03-05T12:59:21;5.27;;;2.03;;
77544;SDS011;66672;50.328;7.610;2023-03-05T13:01:55;6.50;;;2.60;;
77544;SDS011;66672;50.328;7.610;2023-03-05T13:04:31;6.37;;;2.20;;
77544;SDS011;66672;50.328;7.610;2023-03-05T13:07:12;4.90;;;2.17;;
77544;SDS011;66672;50.328;7.610;2023-03-05T13:09:39;4.97;;;2.73;;
77544;SDS011;66672;50.328;7.610;2023-03-05T13:12:12;8.37;;;2.70;;
77544;SDS011;66672;50.328;7.610;2023-03-05T13:19:48;6.83;;;2.13;;
77544;SDS011;66672;50.328;7.610;2023-03-05T13:22:13;4.47;;;1.60;;
77544;SDS011;66672;50.328;7.610;2023-03-05T13:24:39;4.87;;;1.50;;
77544;SDS011;66672;50.328;7.610;2023-03-05T13:27:17;4.00;;;1.70;;
77544;SDS011;66672;50.328;7.610;2023-03-05T13:29:50;6.13;;;1.53;;
77544;SDS011;66672;50.328;7.610;2023-03-05T13:32:24;3.58;;;1.67;;
77544;SDS011;66672;50.328;7.610;2023-03-05T13:34:53;5.53;;;1.90;;
77544;SDS011;66672;50.328;7.610;2023-03-05T13:37:21;5.07;;;1.80;;
77544;SDS011;66672;50.328;7.610;2023-03-05T13:39:49;6.47;;;1.80;;
77544;SDS011;66672;50.328;7.610;2023-03-05T13:42:21;5.23;;;1.50;;
77544;SDS011;66672;50.328;7.610;2023-03-05T13:45:05;8.30;;;3.00;;
77544;SDS011;66672;50.328;7.610;2023-03-05T13:47:50;3.97;;;1.47;;
77544;SDS011;66672;50.328;7.610;2023-03-05T13:50:30;4.37;;;1.60;;
77544;SDS011;66672;50.328;7.610;2023-03-05T13:55:47;4.50;;;1.43;;
77544;SDS011;66672;50.328;7.610;2023-03-05T13:58:59;3.70;;;1.50;;
77544;SDS011;66672;50.328;7.610;2023-03-05T14:01:34;6.50;;;1.50;;
77544;SDS011;66672;50.328;7.610;2023-03-05T14:04:07;5.97;;;1.60;;
77544;SDS011;66672;50.328;7.610;2023-03-05T14:09:21;3.77;;;1.60;;
77544;SDS011;66672;50.328;7.610;2023-03-05T14:11:58;6.17;;;1.70;;
77544;SDS011;66672;50.328;7.610;2023-03-05T14:14:27;3.57;;;1.50;;
77544;SDS011;66672;50.328;7.610;2023-03-05T14:16:53;4.80;;;1.77;;
77544;SDS011;66672;50.328;7.610;2023-03-05T14:19:35;4.80;;;1.80;;
77544;SDS011;66672;50.328;7.610;2023-03-05T14:22:03;4.50;;;1.92;;
77544;SDS011;66672;50.328;7.610;2023-03-05T14:24:30;6.33;;;2.10;;
77544;SDS011;66672;50.328;7.610;2023-03-05T14:27:05;4.07;;;1.97;;
77544;SDS011;66672;50.328;7.610;2023-03-05T14:29:37;5.60;;;2.13;;
77544;SDS011;66672;50.328;7.610;2023-03-05T14:32:17;8.07;;;2.70;;
77544;SDS011;66672;50.328;7.610;2023-03-05T14:35:04;6.00;;;2.80;;
77544;SDS011;66672;50.328;7.610;2023-03-05T14:40:06;5.17;;;1.93;;
77544;SDS011;66672;50.328;7.610;2023-03-05T14:42:52;6.80;;;2.60;;
77544;SDS011;66672;50.328;7.610;2023-03-05T14:45:20;4.80;;;2.30;;
77544;SDS011;66672;50.328;7.610;2023-03-05T14:47:51;5.87;;;2.30;;
77544;SDS011;66672;50.328;7.610;2023-03-05T14:50:18;4.93;;;2.30;;
77544;SDS011;66672;50.328;7.610;2023-03-05T14:52:50;7.07;;;2.20;;
77544;SDS011;66672;50.328;7.610;2023-03-05T14:55:20;5.33;;;2.50;;
77544;SDS011;66672;50.328;7.610;2023-03-05T14:57:47;5.03;;;2.30;;
77544;SDS011;66672;50.328;7.610;2023-03-05T15:02:42;5.23;;;2.23;;
77544;SDS011;66672;50.328;7.610;2023-03-05T15:05:08;7.63;;;2.60;;
77544;SDS011;66672;50.328;7.610;2023-03-05T15:07:33;5.73;;;2.73;;
77544;SDS011;66672;50.328;7.610;2023-03-05T15:09:58;4.13;;;2.20;;
77544;SDS011;66672;50.328;7.610;2023-03-05T15:12:24;5.50;;;2.40;;
77544;SDS011;66672;50.328;7.610;2023-03-05T15:14:51;7.27;;;2.73;;
77544;SDS011;66672;50.328;7.610;2023-03-05T15:17:18;6.17;;;2.70;;
77544;SDS011;66672;50.328;7.610;2023-03-05T15:19:47;5.03;;;2.20;;
77544;SDS011;66672;50.328;7.610;2023-03-05T15:22:13;5.77;;;2.27;;
77544;SDS011;66672;50.328;7.610;2023-03-05T15:24:40;6.07;;;2.70;;
77544;SDS011;66672;50.328;7.610;2023-03-05T15:27:07;6.13;;;2.57;;
77544;SDS011;66672;50.328;7.610;2023-03-05T15:29:32;6.07;;;2.73;;
77544;SDS011;66672;50.328;7.610;2023-03-05T15:31:58;8.13;;;2.77;;
77544;SDS011;66672;50.328;7.610;2023-03-05T15:34:25;5.67;;;2.77;;
77544;SDS011;66672;50.328;7.610;2023-03-05T15:36:51;5.70;;;2.53;;
77544;SDS011;66672;50.328;7.610;2023-03-05T15:39:16;6.70;;;2.70;;
77544;SDS011;66672;50.328;7.610;2023-03-05T15:41:41;5.10;;;2.43;;
77544;SDS011;66672;50.328;7.610;2023-03-05T15:44:07;5.50;;;2.90;;
77544;SDS011;66672;50.328;7.610;2023-03-05T15:46:33;4.97;;;2.60;;
77544;SDS011;66672;50.328;7.610;2023-03-05T15:48:59;6.20;;;2.80;;
77544;SDS011;66672;50.328;7.610;2023-03-05T15:51:24;6.03;;;2.53;;
77544;SDS011;66672;50.328;7.610;2023-03-05T15:53:50;6.20;;;2.90;;
77544;SDS011;66672;50.328;7.610;2023-03-05T15:56:16;6.20;;;2.90;;
77544;SDS011;66672;50.328;7.610;2023-03-05T15:58:43;7.03;;;2.63;;
77544;SDS011;66672;50.328;7.610;2023-03-05T16:01:09;7.83;;;2.50;;
77544;SDS011;66672;50.328;7.610;2023-03-05T16:03:35;10.40;;;5.30;;
77544;SDS011;66672;50.328;7.610;2023-03-05T16:06:01;10.67;;;4.87;;
77544;SDS011;66672;50.328;7.610;2023-03-05T16:08:29;5.97;;;3.10;;
77544;SDS011;66672;50.328;7.610;2023-03-05T16:10:55;5.70;;;2.90;;
77544;SDS011;66672;50.328;7.610;2023-03-05T16:13:21;6.57;;;3.07;;
77544;SDS011;66672;50.328;7.610;2023-03-05T16:15:47;7.60;;;2.57;;
77544;SDS011;66672;50.328;7.610;2023-03-05T16:18:16;10.17;;;3.70;;
77544;SDS011;66672;50.328;7.610;2023-03-05T16:20:42;6.73;;;2.90;;
77544;SDS011;66672;50.328;7.610;2023-03-05T16:23:08;6.30;;;2.83;;
77544;SDS011;66672;50.328;7.610;2023-03-05T16:25:34;7.60;;;3.00;;
77544;SDS011;66672;50.328;7.610;2023-03-05T16:27:59;6.30;;;3.00;;